Airfield :







YOU CAN JOIN US ON...

 
LOGIN :

Register | Disclaimer

   EN    FR    IT 

 









Legend :    VFR   Marginal VFR   IFR   Intensive IFR   Very Intensive IFR
Visi :
Ceiling :
>= 8 km
>= 3000ft
5 to 8 km
1000 to 3000 ft
1500m to 5 km
500 to 1000 ft
800 to 1500m
200 to 500 ft
< 800m
< 200 ft
Symbols :   Thunderstorms  Fog  Heavy snow  Heavy precipitations  Wind > 20 kt






- Airport Elevation : 357 ft
- IATA code : YSJ


CYSJ - Saint John

CURRENT METAR :
  • 150151Z 20023G35KT 2SM -RA BR OVC002 12/12 A2930 RMK SF8 SLP925 DENSITY ALT 900FT

EXPIRED METARs :
  • 150141Z 20024G33KT 1SM R23/5000VP6000FT/D BR OVC002 12/12 A2930 RMK SF8 SLP926 DENSITY ALT 900FT
  • 150123Z 20024G39KT 2SM RA BR OVC002 13/13 A2930 RMK SF8 SLP927 DENSITY ALT 1000FT
  • 150100Z 19022G33KT 2SM RA BR OVC004 13/13 A2932 RMK SF8 SLP931 DENSITY ALT 900FT
  • 150011Z 17011G16KT 2SM RA BR OVC005 10/10 A2936 RMK SF8 SLP945 DENSITY ALT 600FT
  • 150000Z 17006G16KT 110V190 2SM R23/5500VP6000FT/U RA BR BKN007 OVC010 10/10 A2937 RMK SF6SC2 /R29/ SLP948 DENSITY ALT 500FT
  • 142345Z 18009KT 110V230 2SM R23/5000VP6000FT/N RA BR SCT005 OVC012 10/10 A2938 RMK SF4SC4 SLP952 DENSITY ALT 500FT
  • 142300Z 14006G19KT 110V210 2SM +RA BR BKN009 OVC016 09/08 A2939 RMK SF5SC3 SLP958

TAF TAF CYSJ
Valid from the 15 at 00:00 until the 15 at 12:00 UTC


142338Z 1500/1512 16020G30KT 11/2SM -RA BR OVC003
TEMPO 1500/1510 3SM -RA BR OVC007
BECMG 1500/1502 18015G25KT
FM151000 20020G30KT 3SM -DZ BR OVC006 RMK NXT FCST BY 150600Z



MET'MAP, your aeronautical weather chart ! - Copyright ORBIFLY December 2007 - Disclaimer

ORBIFLY MET'MAP TEAM :

Programming & Development : Alexandra Zaïnal
Concept & original design : Baudouin d'Aumeries
Assistance for programming : Marc-Olivier Méhu
Technical & hardware support : Manuel Goepfert

Contact : metmap@orbifly.com




SOURCES & CREDITS :

   NOAA